M I D A S
Marine Information and Data Acquisition System
Tripno 2040 of the Zeeleeuw from 2011-02-14 07:40:22 to 2011-02-14 15:44:08
Back to CruiseResearch ActivitiesStationsMapUnderway DataData graphs

EquipmentUnitsComment
TimeDGPSUTC
LatitudeDGPSDM.mWGS84
LongitudeDGPSDM.mWGS84
HeadingGyrodeg 
SOGDGPSknotsSpeed over ground
COGDGPSdegCourse over ground
DepthEcho soundermeters200 kHz
Missing or incorrect values are displayed as -999
Navigation data collected by the RV Zeeleeuw from 2011-02-14 07:12:17 to 2011-02-14 15:47:59
                                                                                    Next 1000 lines
Time Latitude Longitude Heading SOG COG Depth
2011-02-14 07:12:27 51°13.657 2°55.952 126.5 0.3 213 -999
2011-02-14 07:12:32 51°13.664 2°55.959 126.5 0.1 224 -999
2011-02-14 07:12:37 51°13.665 2°55.959 126.5 0.1 227 -999
2011-02-14 07:12:42 51°13.665 2°55.959 126.5 0.1 232 -999
2011-02-14 07:12:47 51°13.665 2°55.959 126.5 0.1 237 -999
2011-02-14 07:12:52 51°13.665 2°55.959 126.5 -999 252 -999
2011-02-14 07:12:57 51°13.665 2°55.96 126.5 -999 348 -999
2011-02-14 07:13:02 51°13.665 2°55.96 126.4 0.1 26 -999
2011-02-14 07:13:07 51°13.665 2°55.96 126.4 0.1 34 -999
2011-02-14 07:13:12 51°13.665 2°55.961 126.4 0.1 36 -999
2011-02-14 07:13:17 51°13.665 2°55.959 126.4 0.1 241 -999
2011-02-14 07:13:22 51°13.665 2°55.959 126.4 -999 256 -999
2011-02-14 07:13:27 51°13.664 2°55.959 126.4 0.1 29 -999
2011-02-14 07:13:32 51°13.664 2°55.959 126.4 -999 53 -999
2011-02-14 07:13:37 51°13.664 2°55.959 126.4 -999 245 -999
2011-02-14 07:13:42 51°13.664 2°55.959 126.4 -999 32 -999
2011-02-14 07:13:47 51°13.664 2°55.959 126.4 -999 47 -999
2011-02-14 07:13:52 51°13.663 2°55.958 126.4 -999 217 -999
2011-02-14 07:13:57 51°13.663 2°55.958 126.4 -999 243 -999
2011-02-14 07:14:02 51°13.662 2°55.958 126.4 0.1 225 -999
2011-02-14 07:14:07 51°13.662 2°55.958 126.4 -999 35 -999
2011-02-14 07:14:12 51°13.662 2°55.958 126.4 -999 25 -999
2011-02-14 07:14:17 51°13.662 2°55.958 126.4 -999 352 -999
2011-02-14 07:14:22 51°13.662 2°55.958 126.4 0.1 237 -999
2011-02-14 07:14:27 51°13.662 2°55.958 126.4 0.1 226 -999
2011-02-14 07:14:32 51°13.662 2°55.958 126.4 0.1 219 10
2011-02-14 07:14:37 51°13.662 2°55.958 126.4 -999 224 10
2011-02-14 07:14:41 51°13.662 2°55.958 126.4 0.1 70 10
2011-02-14 07:14:47 51°13.662 2°55.958 126.4 0.1 4 10
2011-02-14 07:14:52 51°13.662 2°55.957 126.4 0.1 227 10
2011-02-14 07:14:56 51°13.662 2°55.958 126.4 0.1 224 10
2011-02-14 07:15:01 51°13.662 2°55.958 126.4 0.1 59 10
2011-02-14 07:15:06 51°13.662 2°55.957 126.4 0.1 253 10
2011-02-14 07:15:11 51°13.662 2°55.957 126.4 0.1 230 10
2011-02-14 07:15:16 51°13.662 2°55.957 126.4 -999 224 10
2011-02-14 07:15:20 51°13.662 2°55.957 126.4 -999 238 10
2011-02-14 07:15:25 51°13.662 2°55.957 126.4 -999 185 10
2011-02-14 07:15:30 51°13.662 2°55.957 126.4 -999 45 10
2011-02-14 07:15:35 51°13.662 2°55.957 126.4 -999 287 10
2011-02-14 07:15:40 51°13.662 2°55.956 126.4 -999 257 10
2011-02-14 07:15:44 51°13.662 2°55.957 126.4 -999 39 10
2011-02-14 07:15:49 51°13.662 2°55.957 126.4 -999 59 10
2011-02-14 07:15:55 51°13.662 2°55.957 126.5 0.1 60 10
2011-02-14 07:15:59 51°13.662 2°55.957 126.5 -999 63 10
2011-02-14 07:16:04 51°13.662 2°55.956 126.5 -999 235 10
2011-02-14 07:16:08 51°13.662 2°55.956 126.5 0.1 238 10
2011-02-14 07:16:14 51°13.662 2°55.957 126.5 0.1 226 10
2011-02-14 07:16:19 51°13.662 2°55.957 126.5 -999 75 10
2011-02-14 07:16:24 51°13.662 2°55.957 126.4 -999 31 10
2011-02-14 07:16:28 51°13.662 2°55.957 126.4 -999 178 10
2011-02-14 07:16:34 51°13.662 2°55.958 126.4 0.1 38 10
2011-02-14 07:16:38 51°13.662 2°55.958 126.4 0.1 52 9.9
2011-02-14 07:16:44 51°13.662 2°55.958 126.4 0.1 29 10
2011-02-14 07:16:48 51°13.662 2°55.958 126.4 0.1 38 9.9
2011-02-14 07:16:54 51°13.662 2°55.957 126.3 -999 216 9.9
2011-02-14 07:16:59 51°13.662 2°55.957 126.3 -999 268 10
2011-02-14 07:17:04 51°13.662 2°55.957 126.3 -999 225 -999
2011-02-14 07:17:10 51°13.662 2°55.957 126.2 -999 245 -999
2011-02-14 07:17:16 51°13.663 2°55.958 126.2 -999 212 -999
2011-02-14 07:17:21 51°13.663 2°55.958 126.1 -999 124 -999
2011-02-14 07:17:26 51°13.663 2°55.958 126 -999 179 10.1
2011-02-14 07:17:31 51°13.663 2°55.957 126 -999 226 10.1
2011-02-14 07:17:36 51°13.663 2°55.958 126 -999 121 10.1
2011-02-14 07:17:40 51°13.663 2°55.958 126 0.1 36 10.1
2011-02-14 07:17:45 51°13.663 2°55.957 126 -999 48 10
2011-02-14 07:17:51 51°13.663 2°55.957 126 -999 219 10.1
2011-02-14 07:17:56 51°13.663 2°55.957 126 -999 240 10.1
2011-02-14 07:18:00 51°13.663 2°55.957 126 0.1 45 10
2011-02-14 07:18:06 51°13.663 2°55.957 126 0.1 31 -999
2011-02-14 07:18:12 51°13.663 2°55.957 126 -999 25 -999
2011-02-14 07:18:17 51°13.663 2°55.957 126 -999 353 -999
2011-02-14 07:18:22 51°13.663 2°55.957 126 -999 198 -999
2011-02-14 07:18:27 51°13.663 2°55.957 126 0.1 236 10
2011-02-14 07:18:32 51°13.663 2°55.957 126 0.1 238 10
2011-02-14 07:18:36 51°13.663 2°55.957 126 -999 50 10
2011-02-14 07:18:41 51°13.663 2°55.957 126.1 0.1 236 10
2011-02-14 07:18:46 51°13.663 2°55.957 126.2 -999 258 10
2011-02-14 07:18:51 51°13.663 2°55.957 126.2 0.1 213 10
2011-02-14 07:18:56 51°13.663 2°55.957 126.3 -999 224 10
2011-02-14 07:19:00 51°13.663 2°55.957 126.4 0.1 208 10
2011-02-14 07:19:06 51°13.663 2°55.957 126.5 0.1 199 10
2011-02-14 07:19:11 51°13.663 2°55.957 126.7 0.1 221 -999
2011-02-14 07:19:16 51°13.663 2°55.957 127 0.1 1 10.1
2011-02-14 07:19:20 51°13.663 2°55.957 127 0.1 56 10
2011-02-14 07:19:26 51°13.663 2°55.957 127 0.1 76 -999
2011-02-14 07:19:32 51°13.663 2°55.957 127 -999 104 -999
2011-02-14 07:19:36 51°13.663 2°55.957 127 -999 192 10.1
2011-02-14 07:19:41 51°13.663 2°55.957 127.1 -999 168 10.1
2011-02-14 07:19:47 51°13.663 2°55.957 127.4 0.1 202 -999
2011-02-14 07:19:52 51°13.663 2°55.957 127.8 0.1 206 10
2011-02-14 07:19:57 51°13.663 2°55.957 127.9 -999 49 10.1
2011-02-14 07:20:01 51°13.663 2°55.957 128 -999 303 10.1
2011-02-14 07:20:06 51°13.663 2°55.957 128 0.1 353 10.1
2011-02-14 07:20:11 51°13.662 2°55.957 128 -999 20 10
2011-02-14 07:20:16 51°13.662 2°55.957 128 -999 307 10
2011-02-14 07:20:21 51°13.662 2°55.957 128 -999 11 10.1
2011-02-14 07:20:26 51°13.662 2°55.957 128 0.1 43 9.9
2011-02-14 07:20:31 51°13.662 2°55.957 128 -999 192 10
2011-02-14 07:20:36 51°13.663 2°55.958 128 0.1 40 10.1
2011-02-14 07:20:40 51°13.662 2°55.958 128 -999 40 10.1
2011-02-14 07:20:45 51°13.662 2°55.957 128 0.1 230 10
2011-02-14 07:20:51 51°13.662 2°55.957 128 0.1 212 -999
2011-02-14 07:20:56 51°13.662 2°55.958 128.1 -999 57 10
2011-02-14 07:21:01 51°13.662 2°55.958 128.1 0.1 34 -999
2011-02-14 07:21:07 51°13.662 2°55.958 128.1 -999 18 10
2011-02-14 07:21:12 51°13.662 2°55.958 128.1 -999 37 10
2011-02-14 07:21:17 51°13.663 2°55.959 128.1 0.1 32 10
2011-02-14 07:21:22 51°13.663 2°55.959 128.1 0.1 11 10
2011-02-14 07:21:27 51°13.663 2°55.959 128.1 -999 299 10
2011-02-14 07:21:32 51°13.664 2°55.959 128.1 -999 47 10
2011-02-14 07:21:37 51°13.664 2°55.959 128.1 -999 51 10.2
2011-02-14 07:21:42 51°13.663 2°55.959 128.1 0.1 215 10
2011-02-14 07:21:47 51°13.663 2°55.959 128.1 -999 248 10
2011-02-14 07:21:52 51°13.663 2°55.959 128.1 -999 17 10
2011-02-14 07:21:56 51°13.663 2°55.959 128.1 0.2 37 10
2011-02-14 07:22:01 51°13.663 2°55.959 128.1 -999 40 10
2011-02-14 07:22:06 51°13.664 2°55.959 128.1 -999 54 10
2011-02-14 07:22:11 51°13.664 2°55.959 128.1 -999 71 10.1
2011-02-14 07:22:16 51°13.664 2°55.959 128.1 -999 219 -999
2011-02-14 07:22:21 51°13.664 2°55.959 128.1 -999 28 10.1
2011-02-14 07:22:26 51°13.664 2°55.959 128.1 -999 212 10.1
2011-02-14 07:22:31 51°13.664 2°55.959 128.2 0.1 228 10
2011-02-14 07:22:36 51°13.663 2°55.958 128.3 0.3 219 10
2011-02-14 07:22:41 51°13.662 2°55.957 128.3 0.3 220 10.1
2011-02-14 07:22:46 51°13.662 2°55.957 128.3 0.3 226 10
2011-02-14 07:22:50 51°13.663 2°55.958 128.3 0.1 291 10
2011-02-14 07:22:56 51°13.662 2°55.959 128.3 -999 177 10
2011-02-14 07:23:00 51°13.663 2°55.959 128.3 -999 154 10.1
2011-02-14 07:23:05 51°13.663 2°55.959 128.3 0.1 219 10.1
2011-02-14 07:23:10 51°13.663 2°55.959 128.3 -999 218 10.1
2011-02-14 07:23:15 51°13.663 2°55.958 128.3 0.1 231 10.1
2011-02-14 07:23:20 51°13.662 2°55.958 128.3 0.1 230 10.1
2011-02-14 07:23:24 51°13.662 2°55.958 128.3 0.1 227 10.1
2011-02-14 07:23:29 51°13.661 2°55.958 128.3 0.1 223 10.1
2011-02-14 07:23:34 51°13.662 2°55.958 128.3 -999 173 10.1
2011-02-14 07:23:39 51°13.662 2°55.959 128.3 -999 71 10.1
2011-02-14 07:23:44 51°13.662 2°55.958 128.3 -999 204 10.1
2011-02-14 07:23:48 51°13.662 2°55.959 128.3 -999 22 10
2011-02-14 07:23:53 51°13.662 2°55.959 128.3 0.2 42 10.1
2011-02-14 07:23:59 51°13.662 2°55.959 128.3 0.1 34 10.1
2011-02-14 07:24:04 51°13.662 2°55.958 128.3 -999 241 10.1
2011-02-14 07:24:08 51°13.662 2°55.958 128.3 0.1 222 10.1
2011-02-14 07:24:14 51°13.662 2°55.959 128.4 -999 42 10.1
2011-02-14 07:24:19 51°13.662 2°55.959 128.4 0.1 34 10.1
2011-02-14 07:24:24 51°13.662 2°55.958 128.4 -999 340 10.1
2011-02-14 07:24:28 51°13.662 2°55.959 128.4 0.1 37 10.1
2011-02-14 07:24:33 51°13.663 2°55.959 128.4 0.1 38 10.1
2011-02-14 07:24:39 51°13.664 2°55.959 128.4 0.1 28 10
2011-02-14 07:24:44 51°13.664 2°55.959 128.4 0.2 222 10
2011-02-14 07:24:48 51°13.664 2°55.959 128.4 0.2 219 10.1
2011-02-14 07:24:54 51°13.665 2°55.959 128.4 0.1 216 10
2011-02-14 07:24:59 51°13.666 2°55.96 128.4 -999 222 10.1
2011-02-14 07:25:04 51°13.666 2°55.961 128.4 -999 39 10
2011-02-14 07:25:08 51°13.666 2°55.961 128.4 -999 48 10.1
2011-02-14 07:25:13 51°13.667 2°55.961 128.4 -999 65 10.1
2011-02-14 07:25:18 51°13.667 2°55.962 128.4 0.1 35 10.1
2011-02-14 07:25:24 51°13.667 2°55.961 128.4 0.2 32 10.1
2011-02-14 07:25:28 51°13.666 2°55.961 128.4 0.1 38 10.1
2011-02-14 07:25:33 51°13.665 2°55.96 128.4 0.1 36 10.1
2011-02-14 07:25:38 51°13.664 2°55.96 128.4 0.1 59 10.1
2011-02-14 07:25:44 51°13.664 2°55.959 128.4 0.1 47 10.1
2011-02-14 07:25:48 51°13.664 2°55.959 128.4 -999 57 10
2011-02-14 07:25:54 51°13.664 2°55.959 128.4 0.1 41 10.1
2011-02-14 07:25:58 51°13.664 2°55.959 128.4 0.1 39 9.9
2011-02-14 07:26:04 51°13.664 2°55.958 128.4 0.1 37 10.1
2011-02-14 07:26:08 51°13.664 2°55.958 128.4 -999 207 10
2011-02-14 07:26:14 51°13.664 2°55.958 128.4 -999 73 10
2011-02-14 07:26:19 51°13.663 2°55.958 128.4 0.1 38 10.1
2011-02-14 07:26:24 51°13.663 2°55.957 128.4 0.1 225 10.1
2011-02-14 07:26:28 51°13.662 2°55.958 128.4 -999 51 10
2011-02-14 07:26:34 51°13.662 2°55.958 128.5 -999 39 10
2011-02-14 07:26:39 51°13.662 2°55.957 128.5 -999 234 10
2011-02-14 07:26:44 51°13.662 2°55.958 128.5 -999 224 10
2011-02-14 07:26:48 51°13.662 2°55.958 128.5 -999 223 10.2
2011-02-14 07:26:54 51°13.661 2°55.957 128.5 -999 224 10.2
2011-02-14 07:26:59 51°13.662 2°55.958 128.5 0.1 45 10.1
2011-02-14 07:27:04 51°13.662 2°55.958 128.5 -999 55 10.2
2011-02-14 07:27:08 51°13.662 2°55.959 128.5 -999 81 10.2
2011-02-14 07:27:14 51°13.662 2°55.959 128.6 0.1 38 10.2
2011-02-14 07:27:19 51°13.662 2°55.959 128.6 -999 71 10.2
2011-02-14 07:27:24 51°13.663 2°55.96 128.6 0.1 43 10.2
2011-02-14 07:27:28 51°13.663 2°55.96 128.6 0.1 34 10.2
2011-02-14 07:27:33 51°13.663 2°55.96 128.6 0.1 35 10.1
2011-02-14 07:27:39 51°13.663 2°55.96 128.6 -999 24 10.2
2011-02-14 07:27:44 51°13.663 2°55.96 128.6 -999 37 10.1
2011-02-14 07:27:48 51°13.663 2°55.96 128.6 -999 57 10.2
2011-02-14 07:27:54 51°13.663 2°55.96 128.6 0.2 48 10.1
2011-02-14 07:27:59 51°13.663 2°55.96 128.6 0.1 28 10.1
2011-02-14 07:28:04 51°13.663 2°55.96 128.6 0.1 47 10.1
2011-02-14 07:28:08 51°13.663 2°55.96 128.6 -999 26 10.1
2011-02-14 07:28:13 51°13.663 2°55.96 128.6 -999 263 10.1
2011-02-14 07:28:19 51°13.662 2°55.96 128.6 -999 241 10.1
2011-02-14 07:28:24 51°13.663 2°55.96 128.6 -999 244 10.1
2011-02-14 07:28:28 51°13.663 2°55.96 128.6 -999 232 10.1
2011-02-14 07:28:33 51°13.663 2°55.96 128.6 0.1 213 10.1
2011-02-14 07:28:39 51°13.663 2°55.96 128.6 -999 206 10.2
2011-02-14 07:28:44 51°13.664 2°55.961 128.6 0.1 50 10.2
2011-02-14 07:28:48 51°13.664 2°55.961 128.6 0.2 46 10.2
2011-02-14 07:28:54 51°13.664 2°55.961 128.6 -999 200 10.2
2011-02-14 07:28:58 51°13.664 2°55.961 128.6 -999 219 10.2
2011-02-14 07:29:04 51°13.664 2°55.961 128.6 -999 288 10.2
2011-02-14 07:29:08 51°13.664 2°55.96 128.6 -999 246 10.1
2011-02-14 07:29:14 51°13.663 2°55.96 128.6 -999 278 10.1
2011-02-14 07:29:19 51°13.663 2°55.96 128.6 -999 227 10.1
2011-02-14 07:29:24 51°13.663 2°55.96 128.6 -999 209 10
2011-02-14 07:29:28 51°13.663 2°55.96 128.6 -999 20 10.1
2011-02-14 07:29:34 51°13.663 2°55.96 128.6 -999 254 10.1
2011-02-14 07:29:39 51°13.663 2°55.96 128.6 -999 212 10.1
2011-02-14 07:29:44 51°13.663 2°55.96 128.6 -999 213 10.1
2011-02-14 07:29:48 51°13.662 2°55.96 128.6 -999 247 10.1
2011-02-14 07:29:53 51°13.662 2°55.96 128.6 -999 212 10.1
2011-02-14 07:29:59 51°13.663 2°55.96 128.6 0.1 236 10.1
2011-02-14 07:30:04 51°13.663 2°55.96 128.6 0.1 218 10.1
2011-02-14 07:30:08 51°13.663 2°55.96 128.6 -999 158 10.1
2011-02-14 07:30:13 51°13.663 2°55.96 128.6 -999 79 10.1
2011-02-14 07:30:18 51°13.663 2°55.96 128.7 -999 208 10.1
2011-02-14 07:30:24 51°13.663 2°55.96 128.7 -999 244 10.1
2011-02-14 07:30:28 51°13.663 2°55.96 128.7 0.1 212 10.1
2011-02-14 07:30:33 51°13.663 2°55.96 128.7 0.1 227 10.1
2011-02-14 07:30:39 51°13.663 2°55.96 128.7 0.1 226 10.1
2011-02-14 07:30:44 51°13.663 2°55.96 128.7 0.1 228 10.1
2011-02-14 07:30:48 51°13.663 2°55.96 128.7 0.1 255 10.1
2011-02-14 07:30:54 51°13.663 2°55.96 128.7 -999 205 10.1
2011-02-14 07:30:59 51°13.663 2°55.96 128.7 -999 197 10.1
2011-02-14 07:31:04 51°13.663 2°55.961 128.7 -999 15 10.1
2011-02-14 07:31:08 51°13.663 2°55.961 128.7 -999 70 10.1
2011-02-14 07:31:14 51°13.663 2°55.961 128.7 -999 133 10.1
2011-02-14 07:31:19 51°13.663 2°55.961 128.7 -999 134 10.1
2011-02-14 07:31:24 51°13.663 2°55.96 128.7 0.1 185 10
2011-02-14 07:31:28 51°13.663 2°55.96 128.7 -999 172 10.1
2011-02-14 07:31:34 51°13.663 2°55.961 128.7 0.1 37 10.1
2011-02-14 07:31:39 51°13.663 2°55.96 128.7 -999 4 10.1
2011-02-14 07:31:44 51°13.663 2°55.96 128.7 -999 221 10.1
2011-02-14 07:31:48 51°13.663 2°55.96 128.7 -999 302 10.1
2011-02-14 07:31:53 51°13.663 2°55.96 128.7 -999 182 10.1
2011-02-14 07:31:59 51°13.664 2°55.961 128.7 0.1 45 10.1
2011-02-14 07:32:04 51°13.664 2°55.96 128.7 0.1 18 10
2011-02-14 07:32:08 51°13.664 2°55.96 128.7 -999 326 10.1
2011-02-14 07:32:13 51°13.664 2°55.961 128.7 -999 7 10.1
2011-02-14 07:32:18 51°13.664 2°55.961 128.7 0.1 21 10.1
2011-02-14 07:32:24 51°13.664 2°55.961 128.7 0.1 54 10
2011-02-14 07:32:28 51°13.664 2°55.961 128.7 -999 123 10.1
2011-02-14 07:32:33 51°13.664 2°55.961 128.7 -999 325 10.1
2011-02-14 07:32:38 51°13.664 2°55.961 128.7 0.1 347 10.1
2011-02-14 07:32:44 51°13.664 2°55.961 128.7 0.1 353 10.1
2011-02-14 07:32:48 51°13.664 2°55.961 128.7 -999 287 10.1
2011-02-14 07:32:54 51°13.664 2°55.961 128.7 0.1 172 10.1
2011-02-14 07:32:59 51°13.664 2°55.961 128.7 -999 339 10.1
2011-02-14 07:33:04 51°13.664 2°55.96 128.7 0.1 224 10.1
2011-02-14 07:33:08 51°13.663 2°55.96 128.7 0.1 197 10.1
2011-02-14 07:33:14 51°13.663 2°55.961 128.7 0.1 159 10.1
2011-02-14 07:33:19 51°13.663 2°55.961 128.7 0.1 103 9.9
2011-02-14 07:33:24 51°13.663 2°55.961 128.8 0.1 57 9.9
2011-02-14 07:33:28 51°13.663 2°55.961 129.4 0.1 282 9.9
2011-02-14 07:33:34 51°13.664 2°55.96 129.5 0.1 356 -999
2011-02-14 07:33:40 51°13.663 2°55.96 129.3 0.1 263 -999
2011-02-14 07:33:44 51°13.663 2°55.96 129.3 -999 179 9.9
2011-02-14 07:33:49 51°13.663 2°55.96 129.3 -999 242 9.9
2011-02-14 07:33:54 51°13.663 2°55.96 129.3 -999 226 9.9
2011-02-14 07:33:59 51°13.663 2°55.961 129.3 0.1 33 9.9
2011-02-14 07:34:04 51°13.663 2°55.961 129.3 -999 258 9.9
2011-02-14 07:34:08 51°13.663 2°55.961 129.3 0.1 63 9.9
2011-02-14 07:34:13 51°13.663 2°55.961 129.3 0.1 16 10.2
2011-02-14 07:34:18 51°13.663 2°55.961 129.3 -999 230 9.9
2011-02-14 07:34:24 51°13.663 2°55.961 129.4 0.1 32 10
2011-02-14 07:34:29 51°13.663 2°55.96 129.6 0.1 285 -999
2011-02-14 07:34:35 51°13.663 2°55.96 129.8 -999 205 -999
2011-02-14 07:34:40 51°13.663 2°55.96 130 -999 326 -999
2011-02-14 07:34:46 51°13.663 2°55.96 130 0.1 344 -999
2011-02-14 07:34:51 51°13.663 2°55.96 130 -999 281 10.1
2011-02-14 07:34:56 51°13.663 2°55.96 130 0.1 37 10.1
2011-02-14 07:35:00 51°13.663 2°55.96 130 0.1 3 10.2
2011-02-14 07:35:06 51°13.663 2°55.96 130 -999 77 10
2011-02-14 07:35:11 51°13.663 2°55.96 130 0.1 44 9.9
2011-02-14 07:35:16 51°13.663 2°55.961 129.5 0.1 54 10.2
2011-02-14 07:35:21 51°13.663 2°55.961 128.6 0.1 64 10.1
2011-02-14 07:35:26 51°13.663 2°55.961 127.3 0.1 152 -999
2011-02-14 07:35:32 51°13.663 2°55.961 125.9 0.1 193 -999
2011-02-14 07:35:37 51°13.663 2°55.961 124.7 0.1 202 -999
2011-02-14 07:35:42 51°13.663 2°55.961 123.7 0.1 209 -999
2011-02-14 07:35:47 51°13.662 2°55.961 122.4 0.2 198 -999
2011-02-14 07:35:52 51°13.662 2°55.961 121.5 -999 252 10
2011-02-14 07:35:57 51°13.662 2°55.96 120.3 0.1 249 10.1
2011-02-14 07:36:02 51°13.662 2°55.961 119.6 0.1 208 -999
2011-02-14 07:36:07 51°13.662 2°55.961 118.5 0.1 194 10.1
2011-02-14 07:36:12 51°13.662 2°55.961 117.7 0.1 201 -999
2011-02-14 07:36:16 51°13.662 2°55.961 116.7 -999 269 10.2
2011-02-14 07:36:22 51°13.662 2°55.961 115.8 0.1 220 -999
2011-02-14 07:36:27 51°13.661 2°55.96 114.9 0.2 195 10.4
2011-02-14 07:36:32 51°13.662 2°55.96 113.9 0.1 212 -999
2011-02-14 07:36:37 51°13.661 2°55.96 112.8 0.1 215 9.9
2011-02-14 07:36:42 51°13.661 2°55.96 111.9 0.2 207 10.1
2011-02-14 07:36:47 51°13.661 2°55.96 110.7 0.3 236 -999
2011-02-14 07:36:52 51°13.661 2°55.959 109.9 0.4 283 10
2011-02-14 07:36:56 51°13.662 2°55.957 109.5 0.8 288 10.1
2011-02-14 07:37:01 51°13.662 2°55.955 109.3 1.1 295 10.2
2011-02-14 07:37:07 51°13.663 2°55.951 109.1 1.4 287 10.2
2011-02-14 07:37:11 51°13.664 2°55.948 109.1 1.8 289 10.2
2011-02-14 07:37:16 51°13.665 2°55.944 109.4 2.1 293 10.2
2011-02-14 07:37:21 51°13.666 2°55.938 109.7 2.6 293 -999
2011-02-14 07:37:27 51°13.668 2°55.932 109.9 2.8 292 -999
2011-02-14 07:37:32 51°13.669 2°55.926 109.8 3 291 -999
2011-02-14 07:37:37 51°13.671 2°55.919 109 3.3 289 -999
2011-02-14 07:37:42 51°13.672 2°55.911 108 3.6 289 -999
2011-02-14 07:37:47 51°13.674 2°55.903 106.4 3.8 288 -999
2011-02-14 07:37:52 51°13.675 2°55.895 105.5 4 285 -999
2011-02-14 07:37:57 51°13.677 2°55.886 104.6 4.2 285 -999
2011-02-14 07:38:02 51°13.678 2°55.876 104.1 4.4 284 -999
2011-02-14 07:38:07 51°13.68 2°55.866 103.6 4.6 284 -999
2011-02-14 07:38:12 51°13.681 2°55.856 102.8 4.6 283 -999
2011-02-14 07:38:17 51°13.683 2°55.846 101.7 4.6 282 -999
2011-02-14 07:38:22 51°13.684 2°55.837 100.8 4.4 282 -999
2011-02-14 07:38:27 51°13.685 2°55.827 99.9 4.2 281 -999
2011-02-14 07:38:32 51°13.686 2°55.818 99.2 4.1 281 -999
2011-02-14 07:38:37 51°13.687 2°55.81 98.2 4 280 -999
2011-02-14 07:38:42 51°13.688 2°55.801 96.9 3.8 278 -999
2011-02-14 07:38:47 51°13.689 2°55.793 95.5 3.7 278 -999
2011-02-14 07:38:52 51°13.689 2°55.785 93.7 3.6 275 -999
2011-02-14 07:38:57 51°13.689 2°55.778 91.7 3.4 273 -999
2011-02-14 07:39:02 51°13.689 2°55.771 89.7 3.2 271 14.4
2011-02-14 07:39:07 51°13.69 2°55.764 88 3.1 270 14.1
2011-02-14 07:39:12 51°13.69 2°55.757 86.4 3 271 14
2011-02-14 07:39:17 51°13.69 2°55.751 84.9 2.8 271 13.9
2011-02-14 07:39:21 51°13.69 2°55.747 83.2 2.3 269 13.8
2011-02-14 07:39:27 51°13.69 2°55.742 81.3 1.7 269 13.8
2011-02-14 07:39:32 51°13.69 2°55.74 79.2 1.3 268 13.7
2011-02-14 07:39:36 51°13.689 2°55.739 74.9 0.9 262 13.8
2011-02-14 07:39:41 51°13.69 2°55.737 71.1 0.6 275 13.8
2011-02-14 07:39:46 51°13.69 2°55.736 67.6 0.4 287 13.8
2011-02-14 07:39:51 51°13.69 2°55.736 64.7 0.3 333 13.8
2011-02-14 07:39:56 51°13.691 2°55.737 60.3 0.4 8 13.9
2011-02-14 07:40:00 51°13.692 2°55.737 56.4 0.7 21 13.9
2011-02-14 07:40:05 51°13.693 2°55.738 52.1 0.8 24 14
2011-02-14 07:40:10 51°13.694 2°55.738 47.8 0.9 24 13.8
2011-02-14 07:40:15 51°13.695 2°55.739 43.5 1 22 13.9
2011-02-14 07:40:20 51°13.696 2°55.74 39.1 1 24 14.1
2011-02-14 07:40:24 51°13.697 2°55.741 34.9 1.2 25 14
2011-02-14 07:40:29 51°13.699 2°55.742 31.5 1.3 19 13.9
2011-02-14 07:40:35 51°13.701 2°55.743 26.7 1.4 15 13.7
2011-02-14 07:40:39 51°13.703 2°55.743 23.2 1.5 11 14.2
2011-02-14 07:40:44 51°13.705 2°55.744 19.7 1.6 8 14.3
2011-02-14 07:40:49 51°13.707 2°55.745 15.8 1.8 10 14.3
2011-02-14 07:40:54 51°13.71 2°55.745 11.4 2.1 1 14.3
2011-02-14 07:40:59 51°13.714 2°55.745 4.4 2.4 356 14.2
2011-02-14 07:41:04 51°13.717 2°55.744 358.5 2.5 350 14.2
2011-02-14 07:41:08 51°13.72 2°55.743 352.3 2.7 346 14.2
2011-02-14 07:41:13 51°13.725 2°55.74 345.6 3.1 340 14.1
2011-02-14 07:41:19 51°13.729 2°55.736 340.4 3.3 334 14
2011-02-14 07:41:24 51°13.734 2°55.732 332.7 3.6 329 -999
2011-02-14 07:41:30 51°13.739 2°55.726 329.1 3.9 326 -999
2011-02-14 07:41:35 51°13.744 2°55.721 327 4.2 324 13.8
2011-02-14 07:41:40 51°13.749 2°55.715 326 4.4 325 -999
2011-02-14 07:41:46 51°13.755 2°55.707 325.8 4.9 324 -999
2011-02-14 07:41:51 51°13.761 2°55.701 325.7 5.1 325 -999
2011-02-14 07:41:56 51°13.767 2°55.694 325.9 5.4 326 12.8
2011-02-14 07:42:01 51°13.773 2°55.687 326.1 5.6 325 12.4
2011-02-14 07:42:06 51°13.78 2°55.68 326.6 5.9 325 12.4
2011-02-14 07:42:11 51°13.787 2°55.672 327 6.1 325 -999
2011-02-14 07:42:16 51°13.794 2°55.664 327.8 6.2 326 12.4
2011-02-14 07:42:21 51°13.801 2°55.657 328.7 6.4 327 12.2
2011-02-14 07:42:26 51°13.809 2°55.649 329.6 6.6 328 12.4
2011-02-14 07:42:30 51°13.815 2°55.642 330.2 6.7 328 12.5
2011-02-14 07:42:36 51°13.825 2°55.634 331 6.8 329 12.7
2011-02-14 07:42:40 51°13.832 2°55.628 332.1 7 331 12.7
2011-02-14 07:42:45 51°13.841 2°55.62 332.9 7.2 332 12.8
2011-02-14 07:42:50 51°13.849 2°55.613 333.9 7.2 332 12.4
2011-02-14 07:42:55 51°13.858 2°55.606 335.1 7.3 334 12.3
2011-02-14 07:43:00 51°13.867 2°55.599 335.8 7.3 334 12.5
2011-02-14 07:43:04 51°13.875 2°55.594 336.2 7.4 336 11.8
2011-02-14 07:43:09 51°13.884 2°55.587 336.6 7.5 335 12.6
2011-02-14 07:43:14 51°13.894 2°55.58 336.6 7.5 335 12.6
2011-02-14 07:43:19 51°13.903 2°55.573 336.9 7.5 335 12.9
2011-02-14 07:43:24 51°13.913 2°55.566 337 7.6 335 13.1
2011-02-14 07:43:29 51°13.922 2°55.559 337.6 7.6 336 12.9
2011-02-14 07:43:34 51°13.932 2°55.553 338.3 7.6 336 12.9
2011-02-14 07:43:38 51°13.94 2°55.547 338.4 7.8 337 12.9
2011-02-14 07:43:44 51°13.952 2°55.539 338.6 7.7 337 12.9
2011-02-14 07:43:48 51°13.96 2°55.533 338.6 7.7 337 12.9
2011-02-14 07:43:54 51°13.971 2°55.525 338.6 7.8 337 12.9
2011-02-14 07:43:58 51°13.979 2°55.52 338.6 7.8 337 12.9
2011-02-14 07:44:04 51°13.991 2°55.512 338.5 7.9 337 12.8
2011-02-14 07:44:08 51°14 2°55.506 338.3 8.1 337 12.8
2011-02-14 07:44:14 51°14.012 2°55.497 338.8 8.2 338 12.7
2011-02-14 07:44:18 51°14.021 2°55.492 339.2 8.3 338 12.6
2011-02-14 07:44:24 51°14.033 2°55.483 339 8.3 336 12.5
2011-02-14 07:44:28 51°14.042 2°55.477 338.8 8.5 337 12.6
2011-02-14 07:44:33 51°14.053 2°55.47 339.1 8.6 337 12.6
2011-02-14 07:44:39 51°14.066 2°55.461 339.1 8.6 337 12.6
2011-02-14 07:44:44 51°14.078 2°55.453 339.1 8.9 336 12.5
2011-02-14 07:44:48 51°14.087 2°55.447 338.9 8.9 336 12.6
2011-02-14 07:44:54 51°14.101 2°55.437 338.6 9.1 337 12.6
2011-02-14 07:44:58 51°14.11 2°55.431 338.8 9.1 337 12.6
2011-02-14 07:45:04 51°14.124 2°55.421 338.3 9.1 335 12.8
2011-02-14 07:45:08 51°14.133 2°55.414 337.2 9.3 335 12.6
2011-02-14 07:45:13 51°14.145 2°55.405 336.9 9.5 335 12.5
2011-02-14 07:45:19 51°14.159 2°55.394 336.4 9.6 333 12.5
2011-02-14 07:45:24 51°14.171 2°55.384 335 9.7 333 -999
2011-02-14 07:45:28 51°14.181 2°55.375 333.8 9.8 332 12.8
2011-02-14 07:45:34 51°14.195 2°55.363 332.9 9.8 331 12.5
2011-02-14 07:45:39 51°14.207 2°55.352 332.9 9.8 331 12.6
2011-02-14 07:45:44 51°14.218 2°55.341 333 9.8 330 12.6
2011-02-14 07:45:48 51°14.228 2°55.333 333 9.9 331 12.8
2011-02-14 07:45:54 51°14.243 2°55.32 333.6 10 332 12.8
2011-02-14 07:45:58 51°14.253 2°55.312 334 10.1 332 12.6
2011-02-14 07:46:04 51°14.268 2°55.299 334 10.2 332 12.6
2011-02-14 07:46:08 51°14.278 2°55.291 333.6 10.2 331 12.7
2011-02-14 07:46:14 51°14.292 2°55.278 332.7 10.2 331 12.6
2011-02-14 07:46:19 51°14.305 2°55.267 332.5 10.2 331 -999
2011-02-14 07:46:24 51°14.317 2°55.256 332.7 10.4 330 12.6
2011-02-14 07:46:29 51°14.33 2°55.243 331.9 10.4 329 12.1
2011-02-14 07:46:34 51°14.342 2°55.232 331.8 10.4 329 12.6
2011-02-14 07:46:39 51°14.354 2°55.219 331.7 10.4 329 12.3
2011-02-14 07:46:44 51°14.367 2°55.207 331 10.4 328 12.2
2011-02-14 07:46:48 51°14.376 2°55.197 330.4 10.5 328 12.6
2011-02-14 07:46:53 51°14.389 2°55.185 329.8 10.5 328 12.5
2011-02-14 07:46:59 51°14.403 2°55.17 329.7 10.5 327 12.5
2011-02-14 07:47:04 51°14.415 2°55.157 329.3 10.5 327 12.6
2011-02-14 07:47:08 51°14.425 2°55.146 328.4 10.5 326 12.6
2011-02-14 07:47:14 51°14.44 2°55.131 328 10.5 326 12.6
2011-02-14 07:47:19 51°14.452 2°55.118 328.1 10.5 326 12.8
2011-02-14 07:47:24 51°14.465 2°55.105 328.2 10.7 326 12.8
2011-02-14 07:47:28 51°14.474 2°55.095 328.1 10.7 326 12.8
2011-02-14 07:47:34 51°14.49 2°55.08 328.7 10.8 328 12.8
2011-02-14 07:47:39 51°14.502 2°55.068 329.7 10.8 328 12.8
2011-02-14 07:47:44 51°14.515 2°55.055 330 10.9 329 12.9
2011-02-14 07:47:48 51°14.525 2°55.045 329.6 10.9 328 13.4
2011-02-14 07:47:53 51°14.538 2°55.032 328.9 11.1 329 13.6
2011-02-14 07:47:59 51°14.554 2°55.017 328.7 11.1 330 13.7
2011-02-14 07:48:04 51°14.568 2°55.006 329.5 11.1 332 13.6
2011-02-14 07:48:08 51°14.579 2°54.997 329.9 11 332 13.5
2011-02-14 07:48:13 51°14.593 2°54.987 329.9 11.1 334 13.7
2011-02-14 07:48:19 51°14.609 2°54.973 330 11.1 334 13.5
2011-02-14 07:48:24 51°14.623 2°54.962 329.3 11.1 333 13.5
2011-02-14 07:48:28 51°14.634 2°54.953 327.8 11.2 333 13.5
2011-02-14 07:48:33 51°14.648 2°54.942 327.3 11.2 332 13.5
2011-02-14 07:48:38 51°14.661 2°54.931 328.1 11.1 334 13.5
2011-02-14 07:48:44 51°14.678 2°54.916 328.7 11.2 332 13.4
2011-02-14 07:48:48 51°14.689 2°54.907 327.4 11.2 331 13.5
2011-02-14 07:48:54 51°14.705 2°54.893 326.6 11.2 331 13.6
2011-02-14 07:48:59 51°14.718 2°54.88 325.7 11.4 330 13.4
2011-02-14 07:49:04 51°14.732 2°54.866 324.5 11.5 328 13.4
2011-02-14 07:49:08 51°14.742 2°54.855 323.4 11.4 327 13.2
2011-02-14 07:49:13 51°14.755 2°54.841 322.8 11.6 326 13.1
2011-02-14 07:49:19 51°14.771 2°54.823 322.2 11.7 326 13.1
2011-02-14 07:49:24 51°14.785 2°54.809 322 11.8 326 12.9
2011-02-14 07:49:28 51°14.796 2°54.797 321.9 12 326 12.5
2011-02-14 07:49:33 51°14.81 2°54.782 322 12 326 12.7
2011-02-14 07:49:39 51°14.826 2°54.764 322.1 12.1 326 12.6
2011-02-14 07:49:44 51°14.841 2°54.749 321.9 12.2 326 12.4
2011-02-14 07:49:48 51°14.852 2°54.737 321.9 12.2 326 12.6
2011-02-14 07:49:53 51°14.866 2°54.721 321.8 12.4 326 12.4
2011-02-14 07:49:58 51°14.88 2°54.706 322 12.5 326 12.4
2011-02-14 07:50:04 51°14.898 2°54.687 322 12.5 326 12.5
2011-02-14 07:50:08 51°14.909 2°54.675 321.7 12.7 325 12.5
2011-02-14 07:50:14 51°14.926 2°54.655 321.6 12.7 324 12.6
2011-02-14 07:50:18 51°14.938 2°54.642 321.5 12.8 325 12.2
2011-02-14 07:50:24 51°14.955 2°54.623 321.4 12.8 325 12.4
2011-02-14 07:50:28 51°14.967 2°54.609 321.4 12.9 325 12
2011-02-14 07:50:33 51°14.982 2°54.592 321.2 13 324 11.8
2011-02-14 07:50:39 51°14.999 2°54.573 321.3 13 324 11.8
2011-02-14 07:50:44 51°15.014 2°54.555 321.4 13 324 12
2011-02-14 07:50:48 51°15.026 2°54.542 321.2 13.1 324 11.9
2011-02-14 07:50:53 51°15.04 2°54.524 321.1 13.1 324 11.8
2011-02-14 07:50:59 51°15.058 2°54.504 321.3 13.2 324 11.7
2011-02-14 07:51:04 51°15.073 2°54.487 321.9 13.2 325 11.6
2011-02-14 07:51:08 51°15.085 2°54.474 322.7 13.2 326 11.7
2011-02-14 07:51:13 51°15.1 2°54.457 323 13.2 326 11.5
2011-02-14 07:51:18 51°15.116 2°54.441 323.3 13.3 326 11.5
2011-02-14 07:51:24 51°15.133 2°54.421 323.3 13.3 326 11.4
2011-02-14 07:51:28 51°15.145 2°54.407 323 13.1 325 11.2
2011-02-14 07:51:34 51°15.163 2°54.387 322.3 13.1 325 11.4
2011-02-14 07:51:39 51°15.178 2°54.37 321.7 13.1 324 11.4
2011-02-14 07:51:44 51°15.193 2°54.353 321.1 13.1 323 11.5
2011-02-14 07:51:48 51°15.204 2°54.338 320.5 13.2 323 11.6
2011-02-14 07:51:53 51°15.219 2°54.321 320 13.1 322 11.6
2011-02-14 07:51:59 51°15.236 2°54.3 319.9 13.1 323 11.8
2011-02-14 07:52:04 51°15.251 2°54.282 319.9 13.2 323 11.8
2011-02-14 07:52:08 51°15.263 2°54.268 320 13.2 323 11.7
2011-02-14 07:52:12 51°15.274 2°54.254 320.2 13.2 323 11.8
2011-02-14 07:52:18 51°15.292 2°54.234 320.6 13.1 323 11.9
2011-02-14 07:52:24 51°15.31 2°54.213 321.1 13.3 324 11.8
2011-02-14 07:52:28 51°15.321 2°54.199 321 13.1 323 12
2011-02-14 07:52:34 51°15.339 2°54.178 320.9 13.1 323 12
2011-02-14 07:52:38 51°15.35 2°54.164 320.4 13.1 323 11.9
2011-02-14 07:52:44 51°15.367 2°54.142 319.6 13.2 322 12.2
2011-02-14 07:52:48 51°15.379 2°54.127 319 13.2 321 12.1
2011-02-14 07:52:53 51°15.393 2°54.108 318.1 13.1 320 12.1
2011-02-14 07:52:59 51°15.409 2°54.086 317.5 13.1 320 12.4
2011-02-14 07:53:04 51°15.423 2°54.067 317.3 13.1 320 12.4
2011-02-14 07:53:08 51°15.434 2°54.052 317.2 13.1 319 12.4
2011-02-14 07:53:13 51°15.448 2°54.033 317.1 13.1 320 12.5
2011-02-14 07:53:19 51°15.465 2°54.011 317.1 13.2 320 12.6
2011-02-14 07:53:24 51°15.478 2°53.992 317.1 13.1 320 12.7
2011-02-14 07:53:28 51°15.489 2°53.977 317.2 13.1 320 12.8
2011-02-14 07:53:33 51°15.503 2°53.958 317.6 13.1 321 12.9
2011-02-14 07:53:39 51°15.52 2°53.936 318 13.1 320 12.8
2011-02-14 07:53:44 51°15.534 2°53.918 318.3 13.2 321 12.9
2011-02-14 07:53:48 51°15.545 2°53.903 318 13.1 320 12.8
2011-02-14 07:53:54 51°15.562 2°53.88 317.3 13.1 319 13
2011-02-14 07:53:58 51°15.573 2°53.865 316.5 13.1 318 13.1
2011-02-14 07:54:04 51°15.588 2°53.842 315.5 13 318 13.2
2011-02-14 07:54:08 51°15.599 2°53.826 314.9 13 317 13.1
2011-02-14 07:54:13 51°15.612 2°53.807 314.5 13 317 13.1
2011-02-14 07:54:19 51°15.628 2°53.783 314.3 13 316 13.2
2011-02-14 07:54:24 51°15.641 2°53.763 314.1 13 316 13.4
2011-02-14 07:54:28 51°15.651 2°53.747 313.9 13 316 13.3
2011-02-14 07:54:33 51°15.664 2°53.727 313.9 13 316 13.4
2011-02-14 07:54:39 51°15.68 2°53.704 314 13 317 13.4
2011-02-14 07:54:44 51°15.693 2°53.684 314.5 13 317 13.4
2011-02-14 07:54:48 51°15.704 2°53.67 315.1 13 318 13.4
2011-02-14 07:54:53 51°15.718 2°53.65 315.7 13 319 13.5
2011-02-14 07:54:58 51°15.731 2°53.631 315.8 13 319 13.6
2011-02-14 07:55:04 51°15.748 2°53.609 316 13 319 13.7
2011-02-14 07:55:08 51°15.759 2°53.595 316.8 13 321 14
2011-02-14 07:55:14 51°15.776 2°53.574 318.9 13 324 14
2011-02-14 07:55:19 51°15.792 2°53.558 321.2 13.1 325 13.6
2011-02-14 07:55:24 51°15.807 2°53.542 323.6 13.1 328 13.7
2011-02-14 07:55:28 51°15.82 2°53.531 325.9 13.2 330 13.6
2011-02-14 07:55:33 51°15.836 2°53.517 327.7 13.2 332 13.7
2011-02-14 07:55:39 51°15.855 2°53.501 329.2 13.3 332 13.9
2011-02-14 07:55:44 51°15.871 2°53.488 330.5 13.2 334 13.7
2011-02-14 07:55:48 51°15.885 2°53.478 331.5 13.2 334 13.7
2011-02-14 07:55:54 51°15.906 2°53.462 331.9 13.4 334 13.8
2011-02-14 07:55:59 51°15.922 2°53.451 332.1 13.3 335 13.6
2011-02-14 07:56:04 51°15.938 2°53.438 332.1 13.3 335 13.6
2011-02-14 07:56:08 51°15.952 2°53.427 332.1 13.3 334 13.7
2011-02-14 07:56:14 51°15.972 2°53.412 331.8 13.3 334 13.7
2011-02-14 07:56:18 51°15.985 2°53.402 331.5 13.2 334 13.7
2011-02-14 07:56:24 51°16.005 2°53.386 331.5 13.3 334 13.7
2011-02-14 07:56:28 51°16.018 2°53.376 331.6 13.3 334 13.8
2011-02-14 07:56:32 51°16.032 2°53.366 331.5 13.2 335 13.7
2011-02-14 07:56:39 51°16.055 2°53.348 331.5 13.3 335 13.9
2011-02-14 07:56:44 51°16.072 2°53.336 331.6 13.4 335 13.9
2011-02-14 07:56:48 51°16.085 2°53.325 331.7 13.4 335 13.8
2011-02-14 07:56:54 51°16.105 2°53.311 331.8 13.3 335 14
2011-02-14 07:56:59 51°16.122 2°53.298 332 13.4 335 14
2011-02-14 07:57:04 51°16.139 2°53.286 331.8 13.4 335 13.9
2011-02-14 07:57:08 51°16.152 2°53.276 331.7 13.2 335 14
2011-02-14 07:57:13 51°16.169 2°53.262 331.3 13.3 334 13.9
2011-02-14 07:57:19 51°16.189 2°53.247 331 13.4 334 14
2011-02-14 07:57:24 51°16.205 2°53.235 330.7 13.3 334 14.2
2011-02-14 07:57:28 51°16.218 2°53.224 330.9 13.3 334 14.1
2011-02-14 07:57:33 51°16.235 2°53.211 330.8 13.2 334 14.1
2011-02-14 07:57:39 51°16.255 2°53.196 330.5 13.3 334 14.1
2011-02-14 07:57:44 51°16.272 2°53.182 330.3 13.3 333 14.2
2011-02-14 07:57:48 51°16.285 2°53.172 330.1 13.3 334 14.1
2011-02-14 07:57:53 51°16.301 2°53.159 330.1 13.2 334 14.2
2011-02-14 07:57:58 51°16.318 2°53.146 330.7 13.3 335 14.2
2011-02-14 07:58:04 51°16.338 2°53.131 331.5 13.4 335 14.2
2011-02-14 07:58:08 51°16.352 2°53.122 332.6 13.4 336 14.1
2011-02-14 07:58:14 51°16.372 2°53.108 333.9 13.4 337 14.3
2011-02-14 07:58:19 51°16.389 2°53.097 334.7 13.5 338 14.2
2011-02-14 07:58:24 51°16.407 2°53.086 335.3 13.5 339 14.2
2011-02-14 07:58:28 51°16.421 2°53.078 335.9 13.5 339 14
2011-02-14 07:58:33 51°16.438 2°53.067 336.4 13.4 339 14.1
2011-02-14 07:58:39 51°16.459 2°53.055 336.7 13.5 340 14.3
2011-02-14 07:58:44 51°16.476 2°53.045 336.9 13.5 340 14.3
2011-02-14 07:58:48 51°16.49 2°53.036 337.1 13.5 340 14.1
2011-02-14 07:58:52 51°16.505 2°53.028 337.2 13.6 340 14.1
2011-02-14 07:58:59 51°16.529 2°53.014 337.3 13.4 340 14
2011-02-14 07:59:04 51°16.546 2°53.003 337 13.5 340 14.1
2011-02-14 07:59:08 51°16.56 2°52.995 336.7 13.4 339 13.9
2011-02-14 07:59:13 51°16.577 2°52.984 336.4 13.3 339 14.1
2011-02-14 07:59:18 51°16.595 2°52.973 336.2 13.4 339 14
2011-02-14 07:59:24 51°16.615 2°52.96 335.8 13.4 339 13.9
2011-02-14 07:59:28 51°16.629 2°52.951 335.7 13.4 338 13.7
2011-02-14 07:59:34 51°16.65 2°52.938 335.5 13.4 338 13.5
2011-02-14 07:59:38 51°16.664 2°52.928 335.5 13.4 337 13.4
2011-02-14 07:59:44 51°16.684 2°52.915 335.6 13.4 338 13.4
2011-02-14 07:59:48 51°16.698 2°52.906 335.8 13.4 338 13.3
2011-02-14 07:59:54 51°16.719 2°52.893 336.1 13.3 338 13.1
2011-02-14 07:59:59 51°16.736 2°52.881 336.1 13.3 338 12.8
2011-02-14 08:00:04 51°16.753 2°52.869 336.1 13.3 337 12.7
2011-02-14 08:00:08 51°16.766 2°52.861 335.6 13.3 337 12.2
2011-02-14 08:00:13 51°16.783 2°52.849 335.2 13.4 337 11.9
2011-02-14 08:00:19 51°16.804 2°52.836 335.2 13.3 337 11.6
2011-02-14 08:00:24 51°16.821 2°52.824 335.2 13.3 337 11.9
2011-02-14 08:00:28 51°16.834 2°52.815 335.1 13.4 337 11.4
2011-02-14 08:00:33 51°16.851 2°52.803 335.2 13.4 337 11.6
2011-02-14 08:00:39 51°16.872 2°52.789 335.4 13.3 337 11.4
2011-02-14 08:00:44 51°16.889 2°52.778 335.8 13.3 338 11.4
2011-02-14 08:00:48 51°16.903 2°52.77 336.4 13.3 338 11.6
2011-02-14 08:00:53 51°16.92 2°52.759 336.9 13.4 339 11.7
2011-02-14 08:00:58 51°16.938 2°52.749 337.2 13.4 339 11.8
2011-02-14 08:01:04 51°16.959 2°52.736 337.4 13.5 339 11.6
2011-02-14 08:01:08 51°16.973 2°52.727 337.3 13.5 339 11.9
2011-02-14 08:01:14 51°16.994 2°52.714 337.3 13.5 338 11.9
2011-02-14 08:01:19 51°17.011 2°52.703 336.8 13.4 338 12.3
2011-02-14 08:01:24 51°17.028 2°52.692 336.2 13.5 338 12
2011-02-14 08:01:28 51°17.042 2°52.684 337.3 13.4 341 12.5
2011-02-14 08:01:33 51°17.061 2°52.677 340.5 13.5 346 12.1
2011-02-14 08:01:39 51°17.083 2°52.67 344.4 13.5 349 11.8
2011-02-14 08:01:44 51°17.101 2°52.666 348.3 13.6 352 12.2
2011-02-14 08:01:48 51°17.116 2°52.663 351.3 13.6 354 11.5
2011-02-14 08:01:54 51°17.139 2°52.661 353.1 13.6 355 11.8
2011-02-14 08:01:59 51°17.158 2°52.659 354.1 13.6 356 12.1
2011-02-14 08:02:03 51°17.173 2°52.658 355.7 13.7 357 12.1
2011-02-14 08:02:08 51°17.192 2°52.657 356.6 13.7 358 12.1
2011-02-14 08:02:13 51°17.211 2°52.656 357.3 13.7 359 12
2011-02-14 08:02:18 51°17.23 2°52.655 357.7 13.9 358 11.9
2011-02-14 08:02:24 51°17.253 2°52.655 357.9 13.9 359 12
2011-02-14 08:02:28 51°17.269 2°52.654 358.4 13.9 358 11.8
2011-02-14 08:02:34 51°17.291 2°52.653 358.3 13.9 358 12.2
2011-02-14 08:02:39 51°17.31 2°52.653 357.9 13.8 358 12
2011-02-14 08:02:44 51°17.33 2°52.652 357.7 13.9 358 12.2
2011-02-14 08:02:48 51°17.345 2°52.651 357.2 13.8 357 12.1
2011-02-14 08:02:54 51°17.368 2°52.649 356.5 13.8 357 12
2011-02-14 08:02:59 51°17.387 2°52.647 355.9 13.8 357 12
2011-02-14 08:03:04 51°17.406 2°52.645 355.8 13.8 356 12.4
2011-02-14 08:03:08 51°17.421 2°52.644 355.8 13.9 357 12
2011-02-14 08:03:13 51°17.441 2°52.642 356.4 13.9 357 12.2
2011-02-14 08:03:19 51°17.464 2°52.641 357.3 13.9 358 12.2
2011-02-14 08:03:24 51°17.483 2°52.641 357.3 13.9 358 12.4
2011-02-14 08:03:28 51°17.499 2°52.64 358 13.9 358 12.5
2011-02-14 08:03:33 51°17.518 2°52.64 358.1 13.8 359 12.3
2011-02-14 08:03:39 51°17.541 2°52.638 357.5 13.9 358 12.5
2011-02-14 08:03:44 51°17.56 2°52.638 357.8 13.9 358 12.7
2011-02-14 08:03:48 51°17.576 2°52.637 357.1 13.9 358 12.5
2011-02-14 08:03:53 51°17.595 2°52.636 357.1 13.9 358 12.5
2011-02-14 08:03:58 51°17.613 2°52.634 356.8 13.8 357 12.4
2011-02-14 08:04:04 51°17.636 2°52.633 356.6 13.9 358 12.5
2011-02-14 08:04:08 51°17.652 2°52.631 356.3 13.9 357 12.4
2011-02-14 08:04:14 51°17.675 2°52.63 356.1 13.9 358 12.9
2011-02-14 08:04:19 51°17.694 2°52.629 356.5 13.8 357 12.3
2011-02-14 08:04:24 51°17.713 2°52.627 357 13.8 357 12.6
2011-02-14 08:04:28 51°17.729 2°52.626 356.8 13.8 358 12.4
2011-02-14 08:04:33 51°17.748 2°52.624 356.3 13.8 356 12.5
2011-02-14 08:04:39 51°17.771 2°52.623 355.9 13.9 358 12.7
2011-02-14 08:04:44 51°17.79 2°52.62 356.2 13.9 356 12.4
2011-02-14 08:04:48 51°17.805 2°52.62 355.9 13.8 358 12.6
2011-02-14 08:04:54 51°17.828 2°52.617 356.2 13.8 356 12.6
2011-02-14 08:04:59 51°17.847 2°52.616 356 13.9 357 12.5
2011-02-14 08:05:04 51°17.866 2°52.614 355.7 13.8 356 12.7
2011-02-14 08:05:08 51°17.882 2°52.613 355.6 13.8 358 12.5
2011-02-14 08:05:14 51°17.904 2°52.611 356.1 13.8 356 12.6
2011-02-14 08:05:18 51°17.92 2°52.61 356.2 13.9 357 12.7
2011-02-14 08:05:24 51°17.943 2°52.607 355.9 13.8 356 12.4
2011-02-14 08:05:28 51°17.958 2°52.607 356.3 13.9 358 12.7
2011-02-14 08:05:32 51°17.973 2°52.605 356 13.9 357 12.8
2011-02-14 08:05:39 51°18 2°52.602 356.3 13.8 356 12.9
2011-02-14 08:05:44 51°18.02 2°52.601 355.9 13.9 357 12.9
2011-02-14 08:05:48 51°18.035 2°52.599 355.8 13.8 356 12.7
2011-02-14 08:05:54 51°18.058 2°52.597 355.2 13.8 356 12.8
2011-02-14 08:05:59 51°18.077 2°52.595 354.9 13.8 357 13.1
2011-02-14 08:06:04 51°18.096 2°52.592 355.3 13.9 355 13.2
2011-02-14 08:06:08 51°18.111 2°52.591 355.4 13.8 357 13
2011-02-14 08:06:13 51°18.13 2°52.589 355 13.8 356 13.1
2011-02-14 08:06:19 51°18.153 2°52.587 355.5 13.9 357 13.1
2011-02-14 08:06:24 51°18.172 2°52.586 355.7 13.8 357 13.2
2011-02-14 08:06:28 51°18.188 2°52.584 356.2 13.9 357 13.2
2011-02-14 08:06:33 51°18.207 2°52.582 356.1 13.8 356 12.9
2011-02-14 08:06:39 51°18.23 2°52.581 356.2 13.8 357 13.3
2011-02-14 08:06:44 51°18.249 2°52.579 355.7 13.7 356 13.1
2011-02-14 08:06:48 51°18.264 2°52.578 355.9 13.8 358 13.2
2011-02-14 08:06:53 51°18.283 2°52.575 355.7 13.8 356 13.2
2011-02-14 08:06:58 51°18.303 2°52.574 355.7 13.8 358 13.3
2011-02-14 08:07:04 51°18.325 2°52.572 355.7 13.8 355 13.2
2011-02-14 08:07:08 51°18.341 2°52.571 355.6 13.8 358 13.3
2011-02-14 08:07:14 51°18.364 2°52.569 355.8 13.7 356 13.3
2011-02-14 08:07:19 51°18.383 2°52.567 355.8 13.8 357 13.4
2011-02-14 08:07:24 51°18.402 2°52.565 355.5 13.9 356 13.4
2011-02-14 08:07:28 51°18.417 2°52.563 355.5 13.8 357 13.5
2011-02-14 08:07:33 51°18.436 2°52.561 355.4 13.7 356 13.4
2011-02-14 08:07:39 51°18.459 2°52.559 355.4 13.8 357 13.8
2011-02-14 08:07:44 51°18.478 2°52.558 355.4 13.8 357 13.5
2011-02-14 08:07:48 51°18.494 2°52.557 356 13.8 356 13.6
2011-02-14 08:07:52 51°18.509 2°52.556 355.7 13.9 358 13.6
2011-02-14 08:07:58 51°18.532 2°52.553 356.1 13.8 356 13.7
2011-02-14 08:08:04 51°18.555 2°52.551 355.9 13.9 357 13.8
2011-02-14 08:08:08 51°18.57 2°52.55 355.5 13.9 357 13.5
2011-02-14 08:08:13 51°18.589 2°52.548 355.5 13.8 356 13.8
2011-02-14 08:08:18 51°18.609 2°52.546 355.4 13.8 357 14
2011-02-14 08:08:24 51°18.631 2°52.544 355.5 13.8 356 14
2011-02-14 08:08:28 51°18.647 2°52.543 355.3 13.7 357 14
2011-02-14 08:08:34 51°18.67 2°52.54 355.7 13.8 356 14.1
2011-02-14 08:08:38 51°18.685 2°52.539 355.7 13.8 357 14
2011-02-14 08:08:43 51°18.704 2°52.538 355.9 13.7 357 14
2011-02-14 08:08:48 51°18.723 2°52.536 356 13.7 357 14.2
2011-02-14 08:08:53 51°18.742 2°52.535 355.7 13.8 357 14.2
2011-02-14 08:08:58 51°18.761 2°52.533 355.8 13.8 357 14.3
2011-02-14 08:09:04 51°18.784 2°52.531 355.5 13.8 356 14.3
2011-02-14 08:09:08 51°18.799 2°52.53 355.7 13.9 357 14.3
2011-02-14 08:09:14 51°18.822 2°52.527 355.5 13.9 357 14.4
2011-02-14 08:09:19 51°18.842 2°52.525 355.2 13.8 356 14.5
2011-02-14 08:09:24 51°18.861 2°52.524 354.7 13.9 357 14.5
2011-02-14 08:09:28 51°18.876 2°52.522 355.2 13.8 357 14.6
2011-02-14 08:09:34 51°18.899 2°52.521 355.7 13.8 357 14.6
2011-02-14 08:09:39 51°18.918 2°52.518 355.5 13.8 356 14.8
2011-02-14 08:09:44 51°18.937 2°52.517 355.4 13.9 358 14.7
2011-02-14 08:09:48 51°18.952 2°52.516 355.8 13.9 357 14.9
2011-02-14 08:09:53 51°18.971 2°52.515 355.9 13.8 358 15.2
2011-02-14 08:09:59 51°18.995 2°52.513 356.2 13.8 357 15.2
2011-02-14 08:10:04 51°19.014 2°52.512 356 14 358 15.4
2011-02-14 08:10:08 51°19.029 2°52.51 355.9 13.9 356 15.3
2011-02-14 08:10:12 51°19.045 2°52.509 355.5 13.8 358 15.6
2011-02-14 08:10:18 51°19.068 2°52.506 355.2 13.9 356 15.6
2011-02-14 08:10:24 51°19.091 2°52.505 355.1 13.9 357 15.8
2011-02-14 08:10:28 51°19.106 2°52.503 355 13.7 356 15.7
2011-02-14 08:10:33 51°19.125 2°52.501 354.9 13.8 355 16.1
2011-02-14 08:10:38 51°19.144 2°52.497 352.8 13.7 353 16
2011-02-14 08:10:44 51°19.167 2°52.493 352.1 13.8 354 16.1
2011-02-14 08:10:48 51°19.182 2°52.49 351.4 13.8 354 16.2
2011-02-14 08:10:54 51°19.205 2°52.489 353.5 13.8 358 16.2
2011-02-14 08:10:59 51°19.224 2°52.488 355.6 13.8 357 16.3
2011-02-14 08:11:03 51°19.239 2°52.488 357 13.8 -999 16.5
2011-02-14 08:11:08 51°19.259 2°52.488 358.5 13.9 -999 16.5
2011-02-14 08:11:13 51°19.278 2°52.488 359.2 13.9 2 16.6
2011-02-14 08:11:18 51°19.297 2°52.489 359.9 13.9 1 16.7
2011-02-14 08:11:24 51°19.32 2°52.491 0.6 14 2 16.6
2011-02-14 08:11:28 51°19.336 2°52.492 0.9 14 3 17
2011-02-14 08:11:34 51°19.359 2°52.493 1.6 13.9 2 17
2011-02-14 08:11:39 51°19.378 2°52.494 1.5 13.9 2 17.1
2011-02-14 08:11:44 51°19.398 2°52.492 359.1 13.8 357 17.1
2011-02-14 08:11:48 51°19.413 2°52.49 355.4 13.8 355 17.3
2011-02-14 08:11:54 51°19.435 2°52.485 352.1 13.7 352 17.2
2011-02-14 08:11:59 51°19.454 2°52.479 349.4 13.6 350 17.3
2011-02-14 08:12:04 51°19.472 2°52.474 347.5 13.6 349 17.4
2011-02-14 08:12:08 51°19.487 2°52.468 345.9 13.7 346 17.4
2011-02-14 08:12:13 51°19.506 2°52.461 344.8 13.7 347 17.6
2011-02-14 08:12:19 51°19.527 2°52.451 343.5 13.6 345 17.7
2011-02-14 08:12:24 51°19.545 2°52.444 343.1 13.6 346 17.7
2011-02-14 08:12:28 51°19.56 2°52.438 343.1 13.6 346 17.9
2011-02-14 08:12:34 51°19.582 2°52.429 343.4 13.7 346 17.8
2011-02-14 08:12:38 51°19.597 2°52.423 343.3 13.6 345 17.7
2011-02-14 08:12:44 51°19.619 2°52.413 343 13.6 344 18
2011-02-14 08:12:48 51°19.633 2°52.407 342.7 13.7 346 17.8
2011-02-14 08:12:53 51°19.652 2°52.399 343.1 13.6 345 18.1
2011-02-14 08:12:58 51°19.67 2°52.393 343.5 13.7 347 18.2
2011-02-14 08:13:04 51°19.692 2°52.383 343.4 13.6 344 18
2011-02-14 08:13:08 51°19.707 2°52.377 342.7 13.6 345 18
2011-02-14 08:13:14 51°19.728 2°52.365 341.3 13.6 342 18.1
2011-02-14 08:13:19 51°19.746 2°52.356 340 13.6 342 18
2011-02-14 08:13:24 51°19.764 2°52.346 339.6 13.6 341 18.3
2011-02-14 08:13:28 51°19.778 2°52.338 338.9 13.6 341 18.3
2011-02-14 08:13:34 51°19.799 2°52.327 338.5 13.5 341 18.4
2011-02-14 08:13:39 51°19.817 2°52.317 338.8 13.5 341 18.2
2011-02-14 08:13:44 51°19.835 2°52.308 339.4 13.5 342 18.3
2011-02-14 08:13:48 51°19.849 2°52.3 339.5 13.6 342 18.3
2011-02-14 08:13:53 51°19.867 2°52.291 339.8 13.6 342 18.3
2011-02-14 08:13:59 51°19.888 2°52.28 339.8 13.5 342 18.5
2011-02-14 08:14:04 51°19.907 2°52.27 339.8 13.6 342 18.3
2011-02-14 08:14:08 51°19.921 2°52.263 340 13.6 342 18.5
2011-02-14 08:14:13 51°19.939 2°52.254 340.1 13.6 342 18.6
2011-02-14 08:14:19 51°19.96 2°52.243 340.1 13.6 342 18.6
2011-02-14 08:14:24 51°19.978 2°52.233 340 13.6 342 18.4
2011-02-14 08:14:28 51°19.992 2°52.226 339.6 13.5 341 18.6
2011-02-14 08:14:33 51°20.01 2°52.216 339.4 13.5 342 18.3
2011-02-14 08:14:38 51°20.028 2°52.206 339.1 13.5 341 18.5
2011-02-14 08:14:44 51°20.049 2°52.195 339.1 13.6 342 18.5
2011-02-14 08:14:48 51°20.063 2°52.187 339.1 13.6 340 18.4
2011-02-14 08:14:54 51°20.084 2°52.176 339 13.5 342 18.4
2011-02-14 08:14:59 51°20.102 2°52.166 339 13.5 341 18.2
2011-02-14 08:15:04 51°20.12 2°52.156 339.1 13.6 341 17.8
2011-02-14 08:15:08 51°20.134 2°52.149 339 13.5 341 17.5
2011-02-14 08:15:13 51°20.152 2°52.14 339.5 13.5 342 17.5
2011-02-14 08:15:19 51°20.173 2°52.128 339.7 13.4 341 17.1
2011-02-14 08:15:24 51°20.19 2°52.119 339.5 13.3 342 17.1
2011-02-14 08:15:28 51°20.204 2°52.112 339.2 12.9 341 16.9
2011-02-14 08:15:34 51°20.224 2°52.102 339.4 12.5 343 17
2011-02-14 08:15:39 51°20.239 2°52.094 339.6 12.2 343 17.4
2011-02-14 08:15:44 51°20.255 2°52.086 339.9 11.9 343 17.1
2011-02-14 08:15:48 51°20.268 2°52.081 340 11.6 344 17.1
2011-02-14 08:15:53 51°20.283 2°52.073 340 11.5 343 17.1
2011-02-14 08:15:58 51°20.298 2°52.066 339.9 11.3 343 17
2011-02-14 08:16:04 51°20.316 2°52.057 340 11.2 343 17.2
2011-02-14 08:16:08 51°20.327 2°52.052 339.9 11 343 17.1
2011-02-14 08:16:14 51°20.345 2°52.043 339.7 11 343 17
2011-02-14 08:16:19 51°20.359 2°52.036 339.4 10.9 343 17.2
2011-02-14 08:16:24 51°20.373 2°52.029 339 10.8 342 17.2
2011-02-14 08:16:28 51°20.385 2°52.023 338.9 10.8 343 17.2
2011-02-14 08:16:34 51°20.401 2°52.015 339 10.7 342 16.9
2011-02-14 08:16:39 51°20.415 2°52.008 339.1 10.7 343 16.8
2011-02-14 08:16:44 51°20.43 2°52.001 339.2 10.7 343 16.6
2011-02-14 08:16:48 51°20.441 2°51.995 339.4 10.6 344 16.3
2011-02-14 08:16:53 51°20.455 2°51.989 340 10.6 345 15.6
2011-02-14 08:16:59 51°20.472 2°51.982 340.4 10.6 345 15.5
2011-02-14 08:17:04 51°20.487 2°51.975 340.8 10.6 345 15.4
2011-02-14 08:17:08 51°20.498 2°51.97 340.7 10.6 345 15.4
2011-02-14 08:17:13 51°20.512 2°51.964 340.7 10.6 345 15.4
2011-02-14 08:17:19 51°20.529 2°51.957 340.8 10.6 345 15.6
2011-02-14 08:17:24 51°20.543 2°51.951 340.8 10.4 345 16.1
2011-02-14 08:17:28 51°20.554 2°51.945 339.8 10.2 343 16.2
2011-02-14 08:17:33 51°20.567 2°51.939 338.2 9.9 342 15.9
2011-02-14 08:17:38 51°20.58 2°51.932 336.9 9.7 341 15.7
2011-02-14 08:17:43 51°20.592 2°51.924 335.9 9.5 340 15.9
2011-02-14 08:17:48 51°20.604 2°51.918 334.7 9.3 340 16
2011-02-14 08:17:54 51°20.618 2°51.91 333.8 9 340 16.2
2011-02-14 08:17:59 51°20.629 2°51.903 333.2 8.8 340 16.4
2011-02-14 08:18:04 51°20.64 2°51.895 332.9 8.8 339 16.4
2011-02-14 08:18:08 51°20.649 2°51.89 332.7 8.7 339 16.5
2011-02-14 08:18:13 51°20.66 2°51.883 332.6 8.6 339 16.6
2011-02-14 08:18:19 51°20.673 2°51.875 332.5 8.6 339 16.7
2011-02-14 08:18:24 51°20.684 2°51.868 332.2 8.4 339 16.7
2011-02-14 08:18:28 51°20.693 2°51.863 332.1 8.4 340 16.8
2011-02-14 08:18:34 51°20.706 2°51.855 332.5 8.4 340 16.9
2011-02-14 08:18:39 51°20.717 2°51.849 332.6 8.4 340 16.7
2011-02-14 08:18:44 51°20.728 2°51.842 333.1 8.4 340 17.1
2011-02-14 08:18:48 51°20.737 2°51.837 333.2 8.3 340 17
2011-02-14 08:18:54 51°20.75 2°51.83 333.7 8.3 341 17.4
2011-02-14 08:18:58 51°20.759 2°51.826 334.3 8.3 342 17.7
2011-02-14 08:19:04 51°20.772 2°51.819 334.5 8.3 342 17.4
2011-02-14 08:19:08 51°20.781 2°51.814 334.7 8.3 342 17.9
2011-02-14 08:19:14 51°20.794 2°51.807 334.5 8.3 341 17.8
2011-02-14 08:19:18 51°20.802 2°51.803 334.2 8.3 341 18.1
2011-02-14 08:19:24 51°20.815 2°51.795 333.9 8.3 341 18
2011-02-14 08:19:28 51°20.824 2°51.791 333.8 8.2 341 18.1
2011-02-14 08:19:34 51°20.837 2°51.784 333.8 8.2 341 18.4
2011-02-14 08:19:38 51°20.846 2°51.779 333.7 8.2 341 18.5
2011-02-14 08:19:44 51°20.858 2°51.771 332.9 8.1 340 18.7
2011-02-14 08:19:48 51°20.866 2°51.766 332.3 8.2 340 18.9
2011-02-14 08:19:53 51°20.877 2°51.759 331.7 8.1 339 19.2
2011-02-14 08:19:59 51°20.89 2°51.751 330.7 8.1 338 19
2011-02-14 08:20:04 51°20.9 2°51.744 329.5 8.1 337 19.3
2011-02-14 08:20:08 51°20.908 2°51.738 328.1 8.1 336 19.1
2011-02-14 08:20:13 51°20.918 2°51.731 327.4 8 335 19.3
2011-02-14 08:20:19 51°20.93 2°51.721 326.6 8 334 19.8
2011-02-14 08:20:24 51°20.94 2°51.713 325.9 8 333 19.4
2011-02-14 08:20:28 51°20.948 2°51.707 325.1 7.9 333 19.6
2011-02-14 08:20:33 51°20.958 2°51.699 324.7 7.9 333 19.9
2011-02-14 08:20:38 51°20.967 2°51.691 324.1 7.9 333 19.8
2011-02-14 08:20:44 51°20.979 2°51.681 324 7.9 333 19.8
2011-02-14 08:20:48 51°20.986 2°51.675 323.8 7.9 332 20.2
2011-02-14 08:20:54 51°20.999 2°51.664 323.4 8.2 332 20.1
2011-02-14 08:20:59 51°21.01 2°51.655 323.4 8.6 331 20.1
2011-02-14 08:21:04 51°21.021 2°51.645 323.4 9.2 330 20.4
2011-02-14 08:21:08 51°21.03 2°51.636 323.7 9.7 330 20.4
2011-02-14 08:21:13 51°21.042 2°51.625 323.8 10.1 330 20.8
2011-02-14 08:21:19 51°21.058 2°51.611 323.9 10.5 330 20.9
2011-02-14 08:21:24 51°21.071 2°51.598 323.8 10.9 329 20.8
2011-02-14 08:21:28 51°21.082 2°51.588 323.8 11.3 329 21.1
2011-02-14 08:21:34 51°21.098 2°51.572 323.8 11.7 329 21.4
2011-02-14 08:21:39 51°21.112 2°51.558 323.8 11.9 329 21.4
2011-02-14 08:21:44 51°21.127 2°51.544 323.8 12.2 329 22.1
2011-02-14 08:21:48 51°21.139 2°51.532 324 12.4 328 22.1
2011-02-14 08:21:53 51°21.154 2°51.517 323.9 12.6 329 22.4
2011-02-14 08:21:58 51°21.169 2°51.503 324.2 12.8 328 22.6
2011-02-14 08:22:04 51°21.187 2°51.485 324.3 12.8 329 22.9
2011-02-14 08:22:08 51°21.2 2°51.474 324.7 12.9 329 23.5
2011-02-14 08:22:14 51°21.218 2°51.456 325.1 13 330 23.5
2011-02-14 08:22:19 51°21.233 2°51.441 325 12.9 329 23.6
2011-02-14 08:22:24 51°21.249 2°51.428 325.8 13 332 23.8
2011-02-14 08:22:28 51°21.262 2°51.417 327.4 13.1 332 24.3
2011-02-14 08:22:34 51°21.282 2°51.402 328.4 13.1 334 24.4
2011-02-14 08:22:39 51°21.298 2°51.389 329.7 13.2 334 24.6
2011-02-14 08:22:44 51°21.315 2°51.376 330.4 13.2 334 24.9
2011-02-14 08:22:48 51°21.328 2°51.367 331 13.2 335 25
2011-02-14 08:22:53 51°21.345 2°51.354 331.1 13.2 335 25.3
2011-02-14 08:22:59 51°21.365 2°51.34 331 13.3 335 25.4
2011-02-14 08:23:04 51°21.382 2°51.328 331.3 13.3 336 25.7
2011-02-14 08:23:08 51°21.396 2°51.319 332.5 13.3 337 25.5
2011-02-14 08:23:13 51°21.413 2°51.308 333.6 13.3 338 25.7
2011-02-14 08:23:19 51°21.434 2°51.295 334.6 13.4 339 26
2011-02-14 08:23:24 51°21.451 2°51.286 335.8 13.4 341 26.1
2011-02-14 08:23:28 51°21.465 2°51.278 337.6 13.4 342 25.9
2011-02-14 08:23:33 51°21.483 2°51.27 338.8 13.5 343 26.1
2011-02-14 08:23:38 51°21.501 2°51.263 340 13.5 345 26
2011-02-14 08:23:44 51°21.523 2°51.254 341.6 13.5 347 26.4
2011-02-14 08:23:48 51°21.538 2°51.25 343.8 13.6 350 26.2
2011-02-14 08:23:54 51°21.56 2°51.245 346.9 13.6 352 26
2011-02-14 08:23:58 51°21.575 2°51.244 350.5 13.6 357 26.1
2011-02-14 08:24:04 51°21.598 2°51.243 353.7 13.6 359 26.4
2011-02-14 08:24:08 51°21.613 2°51.243 356.8 13.6 -999 26.3
2011-02-14 08:24:13 51°21.632 2°51.245 358.6 13.7 3 26.4
2011-02-14 08:24:19 51°21.655 2°51.247 0.8 13.7 4 26.4
2011-02-14 08:24:24 51°21.674 2°51.25 1.7 13.7 4 26.3
2011-02-14 08:24:28 51°21.689 2°51.252 2.6 13.7 5 26.4
2011-02-14 08:24:34 51°21.712 2°51.256 3.5 13.7 7 26.5
2011-02-14 08:24:39 51°21.731 2°51.261 5.2 13.8 8 26.2
2011-02-14 08:24:44 51°21.749 2°51.264 6 13.8 6 26.1
2011-02-14 08:24:48 51°21.765 2°51.267 5 13.8 7 26.6
2011-02-14 08:24:53 51°21.783 2°51.269 3.8 13.7 4 26.3
2011-02-14 08:24:58 51°21.803 2°51.273 3.4 13.9 6 26.5
2011-02-14 08:25:04 51°21.825 2°51.274 2.9 13.7 3 26.3
2011-02-14 08:25:08 51°21.84 2°51.276 2.5 13.7 5 26.4
2011-02-14 08:25:14 51°21.863 2°51.279 2.4 13.7 4 26.3
2011-02-14 08:25:19 51°21.882 2°51.28 2.2 13.7 3 26.3
2011-02-14 08:25:24 51°21.901 2°51.282 1.5 13.7 4 26.3
2011-02-14 08:25:28 51°21.916 2°51.284 1.8 13.7 4 26.6
2011-02-14 08:25:33 51°21.935 2°51.287 1.8 13.7 4 26.5
2011-02-14 08:25:39 51°21.958 2°51.288 2.5 13.7 4 26.4
2011-02-14 08:25:44 51°21.977 2°51.291 2 13.7 4 26.2
2011-02-14 08:25:48 51°21.992 2°51.294 3.5 13.7 7 26.4
2011-02-14 08:25:53 51°22.011 2°51.297 4.5 13.7 6 26.2
2011-02-14 08:25:59 51°22.034 2°51.302 5.9 13.8 8 25.9
2011-02-14 08:26:04 51°22.053 2°51.307 6.3 13.8 8 25.8
2011-02-14 08:26:08 51°22.068 2°51.311 6.7 13.8 8 25.5
2011-02-14 08:26:13 51°22.087 2°51.315 6.7 13.7 9 25.6
2011-02-14 08:26:18 51°22.106 2°51.319 7.4 13.8 8 25.3
2011-02-14 08:26:23 51°22.125 2°51.324 6.7 13.8 9 25.3
2011-02-14 08:26:28 51°22.143 2°51.328 6.6 13.8 8 25.5
2011-02-14 08:26:34 51°22.166 2°51.334 6.9 13.8 9 25.3
2011-02-14 08:26:39 51°22.185 2°51.337 6.8 13.8 8 25.5
2011-02-14 08:26:44 51°22.204 2°51.342 6.6 13.8 9 25.6
2011-02-14 08:26:48 51°22.219 2°51.345 6.4 13.7 6 25.3
2011-02-14 08:26:53 51°22.238 2°51.349 6.2 13.8 9 25.7
2011-02-14 08:26:59 51°22.261 2°51.354 6 13.8 7 25.7
2011-02-14 08:27:04 51°22.28 2°51.357 6.1 13.7 7 25.4
2011-02-14 08:27:08 51°22.295 2°51.36 5.2 13.8 7 25.5
2011-02-14 08:27:14 51°22.318 2°51.364 5.3 13.8 6 25.7
2011-02-14 08:27:19 51°22.336 2°51.369 5.5 13.8 8 25.7
2011-02-14 08:27:24 51°22.355 2°51.372 5.3 13.8 8 25.8
2011-02-14 08:27:28 51°22.371 2°51.376 6.2 13.8 8 25.7
2011-02-14 08:27:34 51°22.393 2°51.381 6.7 13.8 7 25.6
2011-02-14 08:27:38 51°22.408 2°51.385 6.2 13.8 9 25.9
2011-02-14 08:27:44 51°22.431 2°51.39 6 13.8 8 25.4
2011-02-14 08:27:48 51°22.446 2°51.393 6.4 13.8 8 25.1
2011-02-14 08:27:52 51°22.461 2°51.396 5.9 13.8 8 25.3
2011-02-14 08:27:59 51°22.488 2°51.401 5.4 13.8 7 25.1
2011-02-14 08:28:04 51°22.507 2°51.405 4.8 13.7 7 25.1
2011-02-14 08:28:08 51°22.522 2°51.407 4.7 13.7 5 24.9
2011-02-14 08:28:14 51°22.545 2°51.411 3.8 13.8 7 25.1
2011-02-14 08:28:19 51°22.564 2°51.414 3.7 13.8 5 25.2
2011-02-14 08:28:24 51°22.583 2°51.417 3.8 13.8 6 25.3
2011-02-14 08:28:28 51°22.598 2°51.42 3.8 13.8 7 25.2
2011-02-14 08:28:33 51°22.617 2°51.422 4.1 13.8 6 25.5
2011-02-14 08:28:39 51°22.64 2°51.427 4.4 13.8 7 25.4
2011-02-14 08:28:44 51°22.659 2°51.431 5.2 13.8 6 25.5
2011-02-14 08:28:48 51°22.674 2°51.434 5.6 13.8 8 25
2011-02-14 08:28:53 51°22.694 2°51.438 5.9 13.9 8 25.1
2011-02-14 08:28:59 51°22.717 2°51.443 5.7 13.8 7 25.2
2011-02-14 08:29:04 51°22.736 2°51.446 5.7 13.8 7 25.4
2011-02-14 08:29:08 51°22.751 2°51.449 5.6 13.8 7 25.2
2011-02-14 08:29:13 51°22.77 2°51.454 5.6 13.8 7 25.3
2011-02-14 08:29:18 51°22.789 2°51.458 5.2 13.8 8 25.3
2011-02-14 08:29:24 51°22.812 2°51.461 5.7 13.9 7 25.4
2011-02-14 08:29:28 51°22.827 2°51.464 5 13.9 7 25.4
2011-02-14 08:29:34 51°22.85 2°51.468 5.1 13.8 6 24.8
2011-02-14 08:29:39 51°22.869 2°51.472 3.9 13.9 7 25.2
2011-02-14 08:29:44 51°22.888 2°51.474 4.7 13.8 5 25.3
2011-02-14 08:29:48 51°22.903 2°51.478 4 13.8 7 25
2011-02-14 08:29:53 51°22.922 2°51.48 4.7 13.8 4 24.9
2011-02-14 08:29:59 51°22.945 2°51.485 3.8 13.8 7 24.6
2011-02-14 08:30:04 51°22.964 2°51.488 4.6 13.8 6 24.9
2011-02-14 08:30:08 51°22.979 2°51.491 4.4 13.7 6 24
2011-02-14 08:30:12 51°22.994 2°51.494 5.2 13.8 7 23
2011-02-14 08:30:19 51°23.021 2°51.498 4.4 13.8 6 24.2
2011-02-14 08:30:24 51°23.04 2°51.502 4.5 13.7 7 24.1
2011-02-14 08:30:28 51°23.055 2°51.503 4.4 13.7 5 23.7
2011-02-14 08:30:33 51°23.074 2°51.506 4.5 13.8 6 23.3
2011-02-14 08:30:38 51°23.093 2°51.509 4.4 13.8 5 21.5
2011-02-14 08:30:44 51°23.116 2°51.513 4.4 13.7 6 20.7
2011-02-14 08:30:48 51°23.131 2°51.516 4.1 13.7 6 18.6
2011-02-14 08:30:53 51°23.15 2°51.519 4.4 13.7 5 18.4
2011-02-14 08:30:59 51°23.173 2°51.523 4.2 13.8 6 18.1
2011-02-14 08:31:04 51°23.192 2°51.524 4.6 13.7 4 18.1
2011-02-14 08:31:08 51°23.207 2°51.528 4.1 13.8 7 15.8
2011-02-14 08:31:13 51°23.226 2°51.53 3.6 13.8 4 17.3
2011-02-14 08:31:19 51°23.249 2°51.533 4 13.8 6 17.3
2011-02-14 08:31:24 51°23.268 2°51.535 4.2 13.8 4 17.2
2011-02-14 08:31:28 51°23.283 2°51.538 4.3 13.8 6 16.7
2011-02-14 08:31:33 51°23.302 2°51.542 5.7 13.9 6 15.4
2011-02-14 08:31:38 51°23.321 2°51.545 5.1 13.8 6 16.8
2011-02-14 08:31:44 51°23.344 2°51.548 5.2 13.8 6 17.4
2011-02-14 08:31:48 51°23.359 2°51.551 4.6 13.8 5 17.4
2011-02-14 08:31:53 51°23.378 2°51.554 5 13.8 5 16.8
2011-02-14 08:31:59 51°23.401 2°51.557 4.7 13.8 5 16
2011-02-14 08:32:04 51°23.42 2°51.56 4.3 13.7 6 17.4
2011-02-14 08:32:08 51°23.435 2°51.563 5 13.8 6 17.8
2011-02-14 08:32:13 51°23.454 2°51.566 5 13.8 6 17.9
2011-02-14 08:32:19 51°23.477 2°51.57 5 13.8 6 17.5
2011-02-14 08:32:24 51°23.496 2°51.572 4.8 13.8 5 16.7
2011-02-14 08:32:28 51°23.512 2°51.574 4.3 13.8 5 18
2011-02-14 08:32:33 51°23.531 2°51.577 4.5 13.8 5 18.3
2011-02-14 08:32:38 51°23.55 2°51.579 3.9 13.8 4 18
2011-02-14 08:32:44 51°23.573 2°51.582 3.7 13.8 4 17.6
2011-02-14 08:32:48 51°23.588 2°51.585 3.7 13.8 5 16.3
2011-02-14 08:32:54 51°23.611 2°51.587 3.7 13.8 4 14.6
2011-02-14 08:32:58 51°23.626 2°51.59 3.5 13.8 5 16.7
2011-02-14 08:33:04 51°23.649 2°51.593 4.3 13.8 5 17.5
2011-02-14 08:33:08 51°23.664 2°51.595 4.2 13.8 5 18.3
2011-02-14 08:33:13 51°23.683 2°51.599 4.7 13.8 7 18.9
2011-02-14 08:33:19 51°23.706 2°51.602 4.4 13.8 5 19.2
2011-02-14 08:33:24 51°23.725 2°51.604 4.8 13.9 5 19.1
2011-02-14 08:33:28 51°23.74 2°51.606 4.4 13.8 5 19.1
2011-02-14 08:33:33 51°23.76 2°51.61 4.4 13.8 6 19.5
2011-02-14 08:33:39 51°23.782 2°51.613 4.2 13.8 4 19.5
2011-02-14 08:33:44 51°23.801 2°51.616 4.3 13.8 6 19.8
2011-02-14 08:33:48 51°23.817 2°51.617 4.5 13.8 4 20.1
2011-02-14 08:33:53 51°23.836 2°51.62 3.7 13.8 5 20.5
2011-02-14 08:33:58 51°23.855 2°51.622 3.4 13.8 4 20.8
2011-02-14 08:34:04 51°23.877 2°51.625 3.7 13.8 4 20.5
2011-02-14 08:34:08 51°23.893 2°51.627 3.4 13.8 4 21
2011-02-14 08:34:12 51°23.908 2°51.629 3.8 13.8 5 20.7
2011-02-14 08:34:19 51°23.934 2°51.633 3.9 13.7 5 18.3
2011-02-14 08:34:24 51°23.953 2°51.636 4.3 13.7 6 20.3
2011-02-14 08:34:28 51°23.969 2°51.638 4.5 13.8 5 21.5
2011-02-14 08:34:33 51°23.988 2°51.641 4.4 13.8 5 21.8
2011-02-14 08:34:39 51°24.01 2°51.644 4.3 13.8 5 22
2011-02-14 08:34:44 51°24.03 2°51.646 4.1 13.8 4 22
2011-02-14 08:34:48 51°24.045 2°51.649 3.9 13.7 5 21.9
2011-02-14 08:34:54 51°24.067 2°51.652 3.8 13.7 6 20.9
2011-02-14 08:34:59 51°24.086 2°51.656 4.5 13.7 6 20.5
2011-02-14 08:35:04 51°24.105 2°51.661 6.4 13.8 9 21.8
2011-02-14 08:35:08 51°24.12 2°51.664 7.8 13.8 9 21.4
2011-02-14 08:35:13 51°24.139 2°51.671 9.1 13.8 11 21
2011-02-14 08:35:19 51°24.162 2°51.677 9.7 13.8 10 20.5
2011-02-14 08:35:24 51°24.18 2°51.683 10.2 13.8 11 21.5
2011-02-14 08:35:28 51°24.195 2°51.688 10.2 13.8 11 22.3
2011-02-14 08:35:33 51°24.214 2°51.694 10.8 13.9 12 21.8